Time;durP1;ratioP1;P1;durP2;ratioP2;P2;SDS_P1;SDS_P2;PMS_P1;PMS_P2;Temp;Humidity;BMP_temperature;BMP_pressure;BME280_temperature;BME280_humidity;BME280_pressure;Samples;Min_cycle;Max_cycle;Signal;HPM_P1;HPM_P2
2024/03/07 00:01:00;;;;;;;7.88;3.58;;;;;;;;;;2044377;29;20418;-48
2024/03/07 00:02:02;;;;;;;7.60;3.50;;;;;;;;;;2043006;28;20147;-48
2024/03/07 00:03:04;;;;;;;8.27;3.58;;;;;;;;;;2041599;29;20050;-49
2024/03/07 00:04:05;;;;;;;6.30;3.38;;;;;;;;;;2043509;28;20054;-48
2024/03/07 00:05:08;;;;;;;7.72;3.70;;;;;;;;;;2043406;28;20486;-53
2024/03/07 00:06:09;;;;;;;6.63;4.13;;;;;;;;;;2046344;28;20066;-51
2024/03/07 00:07:11;;;;;;;9.52;2.97;;;;;;;;;;2045047;28;20133;-53
2024/03/07 00:08:13;;;;;;;9.02;3.10;;;;;;;;;;2043166;28;20027;-52
2024/03/07 00:09:15;;;;;;;7.82;3.25;;;;;;;;;;2045894;29;20055;-56
2024/03/07 00:10:16;;;;;;;7.22;3.58;;;;;;;;;;2043731;29;20035;-52
2024/03/07 00:11:18;;;;;;;6.45;3.30;;;;;;;;;;2042871;29;20099;-52
2024/03/07 00:12:22;;;;;;;6.30;3.22;;;;;;;;;;2047483;28;20023;-52
2024/03/07 00:13:23;;;;;;;8.32;3.60;;;;;;;;;;2046233;28;20035;-53
2024/03/07 00:14:28;;;;;;;10.80;3.35;;;;;;;;;;2042572;29;20024;-49
2024/03/07 00:15:30;;;;;;;6.53;3.65;;;;;;;;;;2046969;28;20469;-49
2024/03/07 00:16:32;;;;;;;8.85;3.15;;;;;;;;;;2046854;28;20430;-51
2024/03/07 00:17:34;;;;;;;8.98;3.70;;;;;;;;;;2045860;29;20114;-49
2024/03/07 00:18:35;;;;;;;7.47;3.35;;;;;;;;;;2041542;29;20741;-49
2024/03/07 00:19:37;;;;;;;6.43;3.63;;;;;;;;;;2042264;29;20036;-49
2024/03/07 00:20:38;;;;;;;7.05;2.85;;;;;;;;;;2045336;28;20062;-50
2024/03/07 00:21:40;;;;;;;6.97;3.65;;;;;;;;;;2045678;28;20495;-47
2024/03/07 00:22:42;;;;;;;8.32;3.88;;;;;;;;;;2045035;29;20332;-48
2024/03/07 00:23:43;;;;;;;7.75;3.47;;;;;;;;;;2046966;28;20390;-48
2024/03/07 00:24:47;;;;;;;6.32;3.67;;;;;;;;;;2044809;28;20469;-48
2024/03/07 00:25:49;;;;;;;10.55;3.80;;;;;;;;;;2047267;29;20633;-48
2024/03/07 00:26:51;;;;;;;6.40;3.53;;;;;;;;;;2042099;28;20028;-49
2024/03/07 00:27:53;;;;;;;10.45;3.72;;;;;;;;;;2044188;29;20031;-49
2024/03/07 00:28:55;;;;;;;8.80;4.43;;;;;;;;;;2048306;28;20028;-49
2024/03/07 00:29:57;;;;;;;6.53;3.65;;;;;;;;;;2042999;28;20020;-48
2024/03/07 00:30:58;;;;;;;8.95;2.95;;;;;;;;;;2048249;29;20061;-48
2024/03/07 00:31:59;;;;;;;8.07;3.38;;;;;;;;;;2045759;28;20024;-48
2024/03/07 00:33:01;;;;;;;9.35;3.83;;;;;;;;;;2045066;28;20383;-48
2024/03/07 00:34:02;;;;;;;7.68;3.35;;;;;;;;;;2046020;28;20043;-48
2024/03/07 00:35:03;;;;;;;5.38;3.55;;;;;;;;;;2045940;28;20058;-48
2024/03/07 00:36:05;;;;;;;6.20;3.25;;;;;;;;;;2045399;29;20039;-49
2024/03/07 00:37:07;;;;;;;7.10;3.33;;;;;;;;;;2045308;29;20483;-53
2024/03/07 00:38:08;;;;;;;7.85;3.35;;;;;;;;;;2047129;28;20032;-52
2024/03/07 00:39:11;;;;;;;7.63;3.42;;;;;;;;;;2045760;29;20386;-53
2024/03/07 00:40:13;;;;;;;7.32;3.67;;;;;;;;;;2048286;28;20372;-52
2024/03/07 00:41:15;;;;;;;6.53;3.08;;;;;;;;;;2046205;28;20430;-51
2024/03/07 00:42:17;;;;;;;7.72;3.50;;;;;;;;;;2043437;28;20048;-54
2024/03/07 00:43:18;;;;;;;6.55;3.42;;;;;;;;;;2050105;28;20030;-53
2024/03/07 00:44:19;;;;;;;11.07;3.53;;;;;;;;;;2051872;28;20062;-49
2024/03/07 00:45:20;;;;;;;9.57;3.78;;;;;;;;;;2041565;29;20866;-49
2024/03/07 00:46:22;;;;;;;8.45;3.45;;;;;;;;;;2050600;28;20396;-49
2024/03/07 00:47:23;;;;;;;5.03;2.90;;;;;;;;;;2047657;28;20479;-48
2024/03/07 00:48:24;;;;;;;6.32;2.95;;;;;;;;;;2056687;28;20539;-49
2024/03/07 00:49:28;;;;;;;7.82;3.20;;;;;;;;;;2052533;28;20028;-49
2024/03/07 00:50:30;;;;;;;6.72;3.80;;;;;;;;;;2048421;28;20391;-49
2024/03/07 00:51:32;;;;;;;8.18;3.50;;;;;;;;;;2048179;28;20501;-49
2024/03/07 00:52:33;;;;;;;7.82;2.85;;;;;;;;;;2047665;29;20114;-48
2024/03/07 00:53:35;;;;;;;6.68;3.13;;;;;;;;;;2047879;29;20023;-49
2024/03/07 00:54:37;;;;;;;6.32;2.95;;;;;;;;;;2047408;28;20035;-49
2024/03/07 00:55:38;;;;;;;7.95;3.33;;;;;;;;;;2048318;29;20126;-48
2024/03/07 00:56:39;;;;;;;7.15;3.10;;;;;;;;;;2048416;28;20023;-48
2024/03/07 00:57:41;;;;;;;5.93;3.17;;;;;;;;;;2048411;29;20082;-49
2024/03/07 00:58:43;;;;;;;8.68;3.10;;;;;;;;;;2048146;29;20103;-48
2024/03/07 00:59:45;;;;;;;5.07;2.55;;;;;;;;;;2044528;28;20024;-48
2024/03/07 01:00:46;;;;;;;7.78;2.90;;;;;;;;;;2043569;28;20063;-48
2024/03/07 01:01:49;;;;;;;7.93;3.45;;;;;;;;;;2047586;28;20015;-49
2024/03/07 01:02:53;;;;;;;7.85;3.22;;;;;;;;;;2046842;29;20422;-48
2024/03/07 01:03:54;;;;;;;8.07;3.63;;;;;;;;;;2045783;28;20016;-48
2024/03/07 01:04:55;;;;;;;8.90;3.17;;;;;;;;;;2048467;28;20022;-48
2024/03/07 01:05:56;;;;;;;9.10;3.03;;;;;;;;;;2048243;28;20016;-48
2024/03/07 01:06:58;;;;;;;5.90;2.92;;;;;;;;;;2048015;29;20026;-49
2024/03/07 01:07:59;;;;;;;5.55;3.13;;;;;;;;;;2047785;29;20016;-49
2024/03/07 01:09:00;;;;;;;6.57;3.17;;;;;;;;;;2047718;28;20585;-52
2024/03/07 01:10:02;;;;;;;5.28;3.25;;;;;;;;;;2047594;29;20031;-52
2024/03/07 01:11:09;;;;;;;6.30;3.30;;;;;;;;;;2046836;28;20506;-54
2024/03/07 01:12:11;;;;;;;5.15;2.70;;;;;;;;;;2047883;29;20031;-53
2024/03/07 01:13:18;;;;;;;5.15;2.92;;;;;;;;;;2048471;28;20078;-53
2024/03/07 01:14:20;;;;;;;6.68;3.20;;;;;;;;;;2039872;29;20042;-51
2024/03/07 01:15:21;;;;;;;8.70;3.40;;;;;;;;;;2046514;29;20059;-53
2024/03/07 01:16:23;;;;;;;6.20;3.17;;;;;;;;;;2048472;28;20016;-53
2024/03/07 01:17:24;;;;;;;6.43;3.08;;;;;;;;;;2048342;28;20206;-52
2024/03/07 01:18:25;;;;;;;5.05;2.90;;;;;;;;;;2049413;28;20007;-53
2024/03/07 01:19:27;;;;;;;6.25;3.03;;;;;;;;;;2049905;28;20466;-52
2024/03/07 01:20:28;;;;;;;8.13;3.25;;;;;;;;;;2049715;29;20020;-55
2024/03/07 01:21:30;;;;;;;5.00;3.25;;;;;;;;;;2050053;28;20027;-55
2024/03/07 01:22:31;;;;;;;7.20;3.15;;;;;;;;;;2049451;29;20541;-53
2024/03/07 01:23:33;;;;;;;8.52;3.03;;;;;;;;;;2049046;29;20039;-55
2024/03/07 01:24:35;;;;;;;4.82;3.00;;;;;;;;;;2050097;28;20110;-54
2024/03/07 01:25:36;;;;;;;7.13;3.00;;;;;;;;;;2042570;28;20019;-54
2024/03/07 01:26:37;;;;;;;7.75;2.75;;;;;;;;;;2044885;28;20039;-54
2024/03/07 01:27:39;;;;;;;6.55;3.22;;;;;;;;;;2050071;28;20343;-54
2024/03/07 01:28:41;;;;;;;6.25;3.30;;;;;;;;;;2049363;28;20098;-54
2024/03/07 01:29:44;;;;;;;5.90;3.03;;;;;;;;;;2049075;28;20015;-50
2024/03/07 01:30:45;;;;;;;7.18;2.95;;;;;;;;;;2049300;28;20015;-53
2024/03/07 01:31:48;;;;;;;5.30;2.83;;;;;;;;;;2052132;28;20367;-54
2024/03/07 01:32:49;;;;;;;6.35;3.22;;;;;;;;;;2049039;29;20097;-54
2024/03/07 01:33:51;;;;;;;12.43;3.30;;;;;;;;;;2048962;28;20026;-54
2024/03/07 01:34:52;;;;;;;9.00;3.13;;;;;;;;;;2049674;29;20027;-53
2024/03/07 01:35:53;;;;;;;4.90;2.90;;;;;;;;;;2049724;29;20110;-54
2024/03/07 01:36:55;;;;;;;8.60;3.15;;;;;;;;;;2049299;28;20613;-54
2024/03/07 01:37:56;;;;;;;4.15;2.50;;;;;;;;;;2049537;28;20042;-54
2024/03/07 01:38:58;;;;;;;6.03;2.92;;;;;;;;;;2041043;29;20030;-55
2024/03/07 01:39:59;;;;;;;8.23;3.63;;;;;;;;;;2040978;29;20031;-54
2024/03/07 01:41:00;;;;;;;5.75;2.92;;;;;;;;;;2042644;29;20031;-49
2024/03/07 01:42:01;;;;;;;8.68;3.20;;;;;;;;;;2049710;28;20031;-48
2024/03/07 01:43:03;;;;;;;7.63;3.47;;;;;;;;;;2049446;28;20028;-49
2024/03/07 01:44:04;;;;;;;8.00;3.45;;;;;;;;;;2049741;29;20035;-49
2024/03/07 01:45:08;;;;;;;8.60;3.72;;;;;;;;;;2048804;28;20028;-49
2024/03/07 01:46:10;;;;;;;9.80;3.08;;;;;;;;;;2048939;29;20047;-49
2024/03/07 01:47:11;;;;;;;7.93;3.58;;;;;;;;;;2049692;29;20019;-49
2024/03/07 01:48:15;;;;;;;7.90;3.30;;;;;;;;;;2049416;29;20057;-49
2024/03/07 01:49:16;;;;;;;7.43;4.00;;;;;;;;;;2049202;28;20470;-50
2024/03/07 01:50:18;;;;;;;7.50;3.35;;;;;;;;;;2049739;29;20058;-54
2024/03/07 01:51:21;;;;;;;9.35;3.45;;;;;;;;;;2049371;28;20023;-50
2024/03/07 01:52:22;;;;;;;9.40;3.92;;;;;;;;;;2049712;28;20043;-50
2024/03/07 01:53:24;;;;;;;8.80;3.50;;;;;;;;;;2048789;28;20034;-49
2024/03/07 01:54:27;;;;;;;7.43;3.42;;;;;;;;;;2048795;28;20398;-50
2024/03/07 01:55:28;;;;;;;6.82;3.08;;;;;;;;;;2043290;28;20534;-49
2024/03/07 01:56:30;;;;;;;7.50;3.65;;;;;;;;;;2048103;28;20398;-49
2024/03/07 01:57:32;;;;;;;8.52;3.72;;;;;;;;;;2048077;28;20122;-49
2024/03/07 01:58:33;;;;;;;8.23;3.35;;;;;;;;;;2048804;29;20402;-48
2024/03/07 01:59:36;;;;;;;10.50;3.47;;;;;;;;;;2049623;29;20458;-48
2024/03/07 02:00:37;;;;;;;7.78;3.20;;;;;;;;;;2055422;28;20026;-49
2024/03/07 02:01:39;;;;;;;9.88;3.90;;;;;;;;;;2054061;28;20045;-53
2024/03/07 02:02:41;;;;;;;6.97;3.67;;;;;;;;;;2046081;29;20031;-53
2024/03/07 02:03:42;;;;;;;7.80;3.58;;;;;;;;;;2048455;28;20047;-53
2024/03/07 02:04:44;;;;;;;5.75;3.20;;;;;;;;;;2049544;28;20015;-49
2024/03/07 02:05:45;;;;;;;9.68;3.40;;;;;;;;;;2048721;28;20067;-52
2024/03/07 02:06:46;;;;;;;8.50;3.50;;;;;;;;;;2049037;29;20102;-54
2024/03/07 02:07:49;;;;;;;7.55;3.53;;;;;;;;;;2048406;28;20055;-54
2024/03/07 02:08:51;;;;;;;7.13;3.35;;;;;;;;;;2048692;28;20019;-54
2024/03/07 02:09:59;;;;;;;7.22;3.20;;;;;;;;;;2049558;28;20019;-53
2024/03/07 02:11:01;;;;;;;7.07;3.58;;;;;;;;;;2049752;28;20018;-49
2024/03/07 02:12:02;;;;;;;8.95;3.72;;;;;;;;;;2049207;28;20103;-49
2024/03/07 02:13:04;;;;;;;10.05;3.63;;;;;;;;;;2049586;29;20126;-49
2024/03/07 02:14:05;;;;;;;8.45;3.58;;;;;;;;;;2047990;28;20030;-52
2024/03/07 02:15:07;;;;;;;12.15;4.07;;;;;;;;;;2041022;29;20042;-55
2024/03/07 02:16:09;;;;;;;10.68;3.78;;;;;;;;;;2039647;29;20024;-53
2024/03/07 02:17:10;;;;;;;9.90;3.85;;;;;;;;;;2041148;29;20529;-53
2024/03/07 02:18:11;;;;;;;9.23;3.60;;;;;;;;;;2048513;28;20032;-56
2024/03/07 02:19:16;;;;;;;6.97;3.70;;;;;;;;;;2048816;28;20082;-54
2024/03/07 02:20:17;;;;;;;8.88;3.95;;;;;;;;;;2049424;28;20019;-53
2024/03/07 02:21:18;;;;;;;7.65;3.40;;;;;;;;;;2049205;28;20070;-53
2024/03/07 02:22:20;;;;;;;7.13;3.97;;;;;;;;;;2049436;29;20410;-54
2024/03/07 02:23:21;;;;;;;10.05;4.22;;;;;;;;;;2049388;29;20090;-54
2024/03/07 02:24:23;;;;;;;9.55;3.95;;;;;;;;;;2049448;29;20027;-55
2024/03/07 02:25:25;;;;;;;7.50;3.72;;;;;;;;;;2049537;28;20106;-53
2024/03/07 02:26:27;;;;;;;6.00;3.25;;;;;;;;;;2049454;29;20023;-54
2024/03/07 02:27:28;;;;;;;10.80;3.78;;;;;;;;;;2048365;28;20015;-53
2024/03/07 02:28:31;;;;;;;8.18;3.97;;;;;;;;;;2049550;28;20034;-52
2024/03/07 02:29:32;;;;;;;11.63;3.78;;;;;;;;;;2048765;28;20382;-55
2024/03/07 02:30:33;;;;;;;11.15;4.07;;;;;;;;;;2049013;28;20422;-53
2024/03/07 02:31:36;;;;;;;16.23;4.55;;;;;;;;;;2049470;29;20429;-54
2024/03/07 02:32:38;;;;;;;9.18;3.83;;;;;;;;;;2049261;28;20065;-54
2024/03/07 02:33:40;;;;;;;11.32;3.72;;;;;;;;;;2049553;28;20410;-53
2024/03/07 02:34:42;;;;;;;10.57;3.60;;;;;;;;;;2049317;28;20102;-50
2024/03/07 02:35:44;;;;;;;6.88;3.83;;;;;;;;;;2049233;28;20043;-48
2024/03/07 02:36:45;;;;;;;11.75;4.25;;;;;;;;;;2042542;28;20023;-49
2024/03/07 02:37:47;;;;;;;7.75;3.80;;;;;;;;;;2045926;28;20047;-48
2024/03/07 02:38:49;;;;;;;8.27;3.45;;;;;;;;;;2049418;28;20042;-48
2024/03/07 02:39:50;;;;;;;5.88;3.47;;;;;;;;;;2048883;29;20106;-48
2024/03/07 02:40:52;;;;;;;12.93;4.32;;;;;;;;;;2048610;29;20105;-48
2024/03/07 02:41:53;;;;;;;9.23;4.13;;;;;;;;;;2048803;29;20034;-48
2024/03/07 02:42:54;;;;;;;10.27;4.32;;;;;;;;;;2048608;29;20086;-49
2024/03/07 02:43:55;;;;;;;7.93;3.67;;;;;;;;;;2049095;29;20027;-49
2024/03/07 02:44:57;;;;;;;7.82;3.95;;;;;;;;;;2048790;29;20062;-49
2024/03/07 02:45:59;;;;;;;8.23;3.80;;;;;;;;;;2048802;29;20030;-49
2024/03/07 02:47:03;;;;;;;10.70;4.47;;;;;;;;;;2049342;29;20012;-49
2024/03/07 02:48:09;;;;;;;7.90;3.92;;;;;;;;;;2049048;28;20434;-48
2024/03/07 02:49:10;;;;;;;9.43;4.13;;;;;;;;;;2049219;28;20012;-49
2024/03/07 02:50:11;;;;;;;7.35;3.50;;;;;;;;;;2049313;29;20055;-49
2024/03/07 02:51:13;;;;;;;8.52;3.88;;;;;;;;;;2049196;28;20031;-49
2024/03/07 02:52:14;;;;;;;10.13;3.80;;;;;;;;;;2049377;28;20027;-49
2024/03/07 02:53:15;;;;;;;8.82;3.97;;;;;;;;;;2049306;28;20477;-48
2024/03/07 02:54:16;;;;;;;8.00;3.70;;;;;;;;;;2048812;28;20135;-50
2024/03/07 02:55:19;;;;;;;9.50;3.88;;;;;;;;;;2048534;29;20019;-50
2024/03/07 02:56:20;;;;;;;9.25;3.55;;;;;;;;;;2048583;29;20023;-48
2024/03/07 02:57:21;;;;;;;6.38;3.10;;;;;;;;;;2049117;28;20496;-48
2024/03/07 02:58:24;;;;;;;7.60;3.42;;;;;;;;;;2049132;28;20029;-49
2024/03/07 02:59:25;;;;;;;6.78;3.67;;;;;;;;;;2048455;28;20046;-48
2024/03/07 03:00:27;;;;;;;9.38;4.15;;;;;;;;;;2032066;29;20040;-50
2024/03/07 03:01:28;;;;;;;6.88;3.58;;;;;;;;;;2038909;29;20056;-48
2024/03/07 03:02:30;;;;;;;11.10;3.92;;;;;;;;;;2045426;29;20019;-48
2024/03/07 03:03:31;;;;;;;6.57;3.72;;;;;;;;;;2052204;28;20011;-48
2024/03/07 03:04:33;;;;;;;8.93;3.47;;;;;;;;;;2050556;28;20031;-48
2024/03/07 03:05:34;;;;;;;6.28;3.60;;;;;;;;;;2046314;28;20035;-49
2024/03/07 03:06:35;;;;;;;7.32;3.53;;;;;;;;;;2048197;29;20028;-49
2024/03/07 03:07:36;;;;;;;7.85;3.92;;;;;;;;;;2048718;28;20046;-48
2024/03/07 03:08:38;;;;;;;9.55;4.18;;;;;;;;;;2049008;28;20036;-48
2024/03/07 03:09:43;;;;;;;9.10;3.55;;;;;;;;;;2048886;28;20473;-48
2024/03/07 03:10:44;;;;;;;6.45;3.40;;;;;;;;;;2048796;28;20039;-48
2024/03/07 03:11:45;;;;;;;5.30;3.42;;;;;;;;;;2048783;28;20099;-48
2024/03/07 03:12:47;;;;;;;7.95;3.22;;;;;;;;;;2048165;28;20022;-48
2024/03/07 03:13:49;;;;;;;6.00;3.20;;;;;;;;;;2048064;28;20023;-48
2024/03/07 03:14:50;;;;;;;10.73;4.35;;;;;;;;;;2048923;28;20091;-50
2024/03/07 03:15:51;;;;;;;8.20;3.88;;;;;;;;;;2048732;28;20405;-48
2024/03/07 03:16:56;;;;;;;8.43;3.97;;;;;;;;;;2052944;28;20051;-49
2024/03/07 03:18:01;;;;;;;7.13;3.55;;;;;;;;;;2041024;29;20039;-49
2024/03/07 03:19:02;;;;;;;9.85;4.03;;;;;;;;;;2044596;28;20039;-48
2024/03/07 03:20:22;;;;;;;5.80;3.53;;;;;;;;;;2048857;28;20521;-48
2024/03/07 03:21:23;;;;;;;7.95;3.60;;;;;;;;;;2048750;28;20027;-48
2024/03/07 03:22:26;;;;;;;6.00;3.50;;;;;;;;;;2048721;28;20458;-49
2024/03/07 03:23:28;;;;;;;7.03;3.33;;;;;;;;;;2048498;28;20041;-49
2024/03/07 03:24:30;;;;;;;8.10;3.33;;;;;;;;;;2048053;28;20023;-48
2024/03/07 03:25:34;;;;;;;9.63;3.30;;;;;;;;;;2048085;28;20335;-49
2024/03/07 03:26:36;;;;;;;8.43;3.42;;;;;;;;;;2048684;28;20019;-50
2024/03/07 03:27:37;;;;;;;11.05;3.55;;;;;;;;;;2047904;28;20034;-49
2024/03/07 03:28:41;;;;;;;8.80;3.70;;;;;;;;;;2045919;28;20031;-49
2024/03/07 03:29:43;;;;;;;6.78;3.40;;;;;;;;;;2046409;28;20027;-49
2024/03/07 03:30:44;;;;;;;9.13;3.45;;;;;;;;;;2048318;29;20020;-49
2024/03/07 03:31:45;;;;;;;6.63;3.50;;;;;;;;;;2048169;28;20020;-49
2024/03/07 03:32:47;;;;;;;7.35;3.22;;;;;;;;;;2044709;28;20055;-49
2024/03/07 03:33:49;;;;;;;5.85;3.30;;;;;;;;;;2046399;29;20110;-49
2024/03/07 03:34:52;;;;;;;7.63;3.75;;;;;;;;;;2047951;28;20027;-49
2024/03/07 03:35:55;;;;;;;7.22;3.53;;;;;;;;;;2048712;28;20015;-48
2024/03/07 03:36:56;;;;;;;6.35;3.47;;;;;;;;;;2048839;28;20027;-48
2024/03/07 03:37:57;;;;;;;7.65;3.00;;;;;;;;;;2048765;28;20090;-49
2024/03/07 03:38:58;;;;;;;6.40;3.30;;;;;;;;;;2049040;29;20034;-49
2024/03/07 03:40:00;;;;;;;5.22;3.17;;;;;;;;;;2040048;29;20046;-49
2024/03/07 03:41:01;;;;;;;5.97;3.30;;;;;;;;;;2039305;29;20075;-49
2024/03/07 03:42:02;;;;;;;7.55;2.85;;;;;;;;;;2046302;28;20352;-49
2024/03/07 03:43:03;;;;;;;5.93;3.08;;;;;;;;;;2042449;29;20462;-49
2024/03/07 03:44:06;;;;;;;10.45;3.67;;;;;;;;;;2044131;28;20030;-54
2024/03/07 03:45:09;;;;;;;7.38;3.65;;;;;;;;;;2046701;29;20099;-54
2024/03/07 03:46:11;;;;;;;8.70;3.20;;;;;;;;;;2047987;28;20034;-55
2024/03/07 03:47:12;;;;;;;7.28;3.30;;;;;;;;;;2048276;29;20443;-51
2024/03/07 03:48:14;;;;;;;6.38;3.22;;;;;;;;;;2048880;29;20031;-52
2024/03/07 03:49:15;;;;;;;7.78;3.40;;;;;;;;;;2048487;28;20027;-53
2024/03/07 03:50:17;;;;;;;7.38;3.55;;;;;;;;;;2048662;28;20102;-53
2024/03/07 03:51:21;;;;;;;9.38;3.95;;;;;;;;;;2044776;29;20026;-53
2024/03/07 03:52:23;;;;;;;8.20;3.17;;;;;;;;;;2048659;28;20026;-52
2024/03/07 03:53:24;;;;;;;11.00;3.72;;;;;;;;;;2048650;28;20015;-56
2024/03/07 03:54:27;;;;;;;5.45;3.13;;;;;;;;;;2048688;28;20011;-54
2024/03/07 03:55:28;;;;;;;10.80;3.60;;;;;;;;;;2048742;28;20486;-53
2024/03/07 03:56:31;;;;;;;9.48;3.50;;;;;;;;;;2047178;29;20020;-52
2024/03/07 03:57:34;;;;;;;7.28;3.67;;;;;;;;;;2039408;29;20110;-53
2024/03/07 03:58:35;;;;;;;7.90;3.63;;;;;;;;;;2040993;29;20027;-53
2024/03/07 03:59:38;;;;;;;6.30;3.53;;;;;;;;;;2045063;28;20073;-52
2024/03/07 04:00:40;;;;;;;8.15;3.35;;;;;;;;;;2041524;29;20538;-53
2024/03/07 04:01:41;;;;;;;6.57;3.63;;;;;;;;;;2048679;28;20450;-54
2024/03/07 04:02:44;;;;;;;5.03;3.20;;;;;;;;;;2048456;28;20019;-55
2024/03/07 04:03:48;;;;;;;7.93;3.72;;;;;;;;;;2048446;28;20514;-53
2024/03/07 04:04:50;;;;;;;6.20;3.53;;;;;;;;;;2044979;29;20058;-52
2024/03/07 04:05:51;;;;;;;7.90;3.75;;;;;;;;;;2047834;28;20016;-52
2024/03/07 04:06:52;;;;;;;7.93;3.45;;;;;;;;;;2040676;29;20015;-53
2024/03/07 04:07:55;;;;;;;6.85;3.47;;;;;;;;;;2047170;28;20334;-52
2024/03/07 04:08:56;;;;;;;11.45;4.05;;;;;;;;;;2048543;28;20011;-53
2024/03/07 04:09:58;;;;;;;6.65;3.65;;;;;;;;;;2048238;28;20086;-53
2024/03/07 04:10:59;;;;;;;6.53;3.55;;;;;;;;;;2047669;28;20023;-53
2024/03/07 04:12:00;;;;;;;7.05;3.60;;;;;;;;;;2047869;28;20451;-53
2024/03/07 04:13:03;;;;;;;6.88;3.15;;;;;;;;;;2048241;28;20058;-54
2024/03/07 04:14:04;;;;;;;6.72;3.50;;;;;;;;;;2047647;28;20031;-53
2024/03/07 04:15:09;;;;;;;8.13;3.50;;;;;;;;;;2047964;29;20023;-52
2024/03/07 04:16:11;;;;;;;5.93;3.30;;;;;;;;;;2045351;28;20032;-54
2024/03/07 04:17:12;;;;;;;8.55;3.92;;;;;;;;;;2048437;28;20051;-53
2024/03/07 04:18:13;;;;;;;8.15;3.60;;;;;;;;;;2048384;29;20454;-53
2024/03/07 04:19:15;;;;;;;6.57;3.33;;;;;;;;;;2047709;28;20458;-52
2024/03/07 04:20:19;;;;;;;8.77;3.78;;;;;;;;;;2047826;28;20113;-52
2024/03/07 04:21:20;;;;;;;5.90;3.45;;;;;;;;;;2048378;28;20023;-54
2024/03/07 04:22:22;;;;;;;8.65;3.67;;;;;;;;;;2047626;28;20041;-55
2024/03/07 04:23:24;;;;;;;7.30;3.78;;;;;;;;;;2047540;29;20034;-55
2024/03/07 04:24:25;;;;;;;5.90;3.58;;;;;;;;;;2048254;28;20034;-53
2024/03/07 04:25:28;;;;;;;6.10;3.55;;;;;;;;;;2048120;28;20151;-54
2024/03/07 04:26:29;;;;;;;10.35;3.60;;;;;;;;;;2048488;28;20130;-53
2024/03/07 04:27:30;;;;;;;6.38;3.28;;;;;;;;;;2048255;28;20007;-53
2024/03/07 04:28:32;;;;;;;9.95;4.28;;;;;;;;;;2047706;28;20030;-54
2024/03/07 04:29:34;;;;;;;6.90;3.38;;;;;;;;;;2039148;29;20371;-54
2024/03/07 04:30:35;;;;;;;5.78;3.92;;;;;;;;;;2047834;28;20019;-49
2024/03/07 04:31:37;;;;;;;8.65;3.90;;;;;;;;;;2045846;28;20015;-51
2024/03/07 04:32:38;;;;;;;11.90;5.03;;;;;;;;;;2048472;28;20016;-48
2024/03/07 04:33:40;;;;;;;14.75;7.43;;;;;;;;;;2046728;28;20498;-49
2024/03/07 04:34:41;;;;;;;23.50;11.25;;;;;;;;;;2047544;29;20035;-49
2024/03/07 04:35:42;;;;;;;25.33;11.65;;;;;;;;;;2047047;28;20763;-50
2024/03/07 04:36:44;;;;;;;35.20;13.73;;;;;;;;;;2044202;28;20463;-49
2024/03/07 04:37:45;;;;;;;26.67;14.60;;;;;;;;;;2048362;29;20063;-49
2024/03/07 04:38:46;;;;;;;35.30;18.10;;;;;;;;;;2047478;28;20086;-48
2024/03/07 04:39:48;;;;;;;49.13;22.70;;;;;;;;;;2047768;28;20038;-49
2024/03/07 04:40:49;;;;;;;50.67;24.10;;;;;;;;;;2047560;28;20107;-48
2024/03/07 04:41:52;;;;;;;53.05;27.15;;;;;;;;;;2048359;29;20023;-49
2024/03/07 04:42:53;;;;;;;60.17;30.98;;;;;;;;;;2048529;28;20015;-48
2024/03/07 04:43:54;;;;;;;72.97;32.60;;;;;;;;;;2048243;28;20043;-48
2024/03/07 04:44:56;;;;;;;64.70;30.83;;;;;;;;;;2047760;28;20106;-49
2024/03/07 04:45:57;;;;;;;65.63;30.65;;;;;;;;;;2047750;29;20390;-49
2024/03/07 04:47:00;;;;;;;61.17;30.13;;;;;;;;;;2047879;29;20023;-49
2024/03/07 04:48:01;;;;;;;71.85;30.85;;;;;;;;;;2047680;28;20555;-48
2024/03/07 04:49:03;;;;;;;53.40;25.65;;;;;;;;;;2040104;29;20019;-49
2024/03/07 04:50:04;;;;;;;52.70;25.25;;;;;;;;;;2044191;28;20039;-49
2024/03/07 04:51:05;;;;;;;60.70;28.85;;;;;;;;;;2048269;29;20023;-50
2024/03/07 04:52:07;;;;;;;64.18;30.55;;;;;;;;;;2048388;29;20073;-49
2024/03/07 04:53:09;;;;;;;62.72;28.58;;;;;;;;;;2048961;28;20098;-49
2024/03/07 04:54:10;;;;;;;64.28;31.55;;;;;;;;;;2050199;28;20105;-49
2024/03/07 04:55:12;;;;;;;61.03;30.58;;;;;;;;;;2049955;29;20058;-49
2024/03/07 04:56:14;;;;;;;59.03;29.52;;;;;;;;;;2049375;29;20039;-49
2024/03/07 04:57:15;;;;;;;66.50;31.88;;;;;;;;;;2049569;28;20062;-49
2024/03/07 04:58:17;;;;;;;72.32;33.78;;;;;;;;;;2049986;28;20118;-50
2024/03/07 04:59:19;;;;;;;65.53;34.58;;;;;;;;;;2049441;28;20090;-49
2024/03/07 05:00:20;;;;;;;69.95;32.05;;;;;;;;;;2049436;29;20363;-49
2024/03/07 05:01:22;;;;;;;71.13;32.45;;;;;;;;;;2048087;29;20552;-49
2024/03/07 05:02:23;;;;;;;61.97;28.02;;;;;;;;;;2047213;29;20023;-49
2024/03/07 05:03:25;;;;;;;48.05;22.40;;;;;;;;;;2049205;28;20024;-51
2024/03/07 05:04:29;;;;;;;47.85;21.40;;;;;;;;;;2049565;28;20022;-49
2024/03/07 05:05:30;;;;;;;48.22;21.08;;;;;;;;;;2050213;28;20012;-50
2024/03/07 05:06:34;;;;;;;44.33;20.42;;;;;;;;;;2050057;28;20049;-49
2024/03/07 05:07:36;;;;;;;43.13;20.60;;;;;;;;;;2049508;29;20398;-50
2024/03/07 05:08:38;;;;;;;40.03;18.52;;;;;;;;;;2049030;29;20485;-49
2024/03/07 05:09:39;;;;;;;41.45;19.33;;;;;;;;;;2049820;28;20023;-50
2024/03/07 05:10:41;;;;;;;45.10;19.65;;;;;;;;;;2049725;29;20098;-50
2024/03/07 05:11:43;;;;;;;37.72;18.52;;;;;;;;;;2049382;28;20039;-49
2024/03/07 05:12:44;;;;;;;40.70;19.15;;;;;;;;;;2049599;28;20046;-50
2024/03/07 05:13:45;;;;;;;43.42;19.38;;;;;;;;;;2049058;28;20042;-50
2024/03/07 05:14:47;;;;;;;42.63;18.10;;;;;;;;;;2049983;28;20023;-49
2024/03/07 05:15:50;;;;;;;36.88;17.20;;;;;;;;;;2050103;29;20038;-50
2024/03/07 05:17:08;;;;;;;35.38;17.50;;;;;;;;;;2049760;28;20601;-49
2024/03/07 05:18:09;;;;;;;38.42;18.50;;;;;;;;;;2049379;28;20043;-49
2024/03/07 05:19:11;;;;;;;35.38;16.92;;;;;;;;;;2049035;28;20038;-48
2024/03/07 05:20:12;;;;;;;43.70;18.13;;;;;;;;;;2049351;29;20497;-48
2024/03/07 05:22:33;;;;;;;32.35;16.67;;;;;;;;;;2049476;28;20046;-50
2024/03/07 05:23:34;;;;;;;32.55;15.70;;;;;;;;;;2049341;28;20038;-48
2024/03/07 05:24:36;;;;;;;35.45;16.17;;;;;;;;;;2040940;29;20035;-49
2024/03/07 05:25:39;;;;;;;30.75;14.75;;;;;;;;;;2045430;28;20058;-49
2024/03/07 05:26:41;;;;;;;36.83;15.40;;;;;;;;;;2041184;28;20079;-49
2024/03/07 05:27:43;;;;;;;37.33;15.90;;;;;;;;;;2049157;28;20019;-49
2024/03/07 05:28:44;;;;;;;30.88;14.98;;;;;;;;;;2048944;28;20027;-48
2024/03/07 05:29:45;;;;;;;32.25;15.63;;;;;;;;;;2049151;29;20026;-50
2024/03/07 05:30:47;;;;;;;33.97;14.88;;;;;;;;;;2044841;28;20012;-49
2024/03/07 05:31:49;;;;;;;36.60;15.35;;;;;;;;;;2046970;28;20018;-49
2024/03/07 05:32:50;;;;;;;38.67;16.92;;;;;;;;;;2045667;29;20437;-50
2024/03/07 05:33:51;;;;;;;34.90;16.85;;;;;;;;;;2047440;28;20082;-49
2024/03/07 05:34:53;;;;;;;30.33;15.10;;;;;;;;;;2042240;29;20031;-49
2024/03/07 05:36:02;;;;;;;31.90;15.63;;;;;;;;;;2046435;28;20042;-49
2024/03/07 05:37:04;;;;;;;35.90;15.95;;;;;;;;;;2049830;28;20174;-49
2024/03/07 05:38:05;;;;;;;35.38;16.00;;;;;;;;;;2049761;28;20409;-49
2024/03/07 05:39:10;;;;;;;33.22;15.30;;;;;;;;;;2048968;28;20359;-49
2024/03/07 05:40:12;;;;;;;32.38;14.38;;;;;;;;;;2048742;29;20027;-49
2024/03/07 05:41:13;;;;;;;30.85;13.82;;;;;;;;;;2041910;28;20035;-48
2024/03/07 05:42:14;;;;;;;32.22;14.38;;;;;;;;;;2049816;29;20385;-53
2024/03/07 05:43:16;;;;;;;29.27;13.85;;;;;;;;;;2049707;29;20038;-49
2024/03/07 05:44:19;;;;;;;28.85;13.50;;;;;;;;;;2049658;28;20066;-47
2024/03/07 05:45:20;;;;;;;29.65;12.82;;;;;;;;;;2049450;28;20430;-48
2024/03/07 05:46:22;;;;;;;21.27;11.45;;;;;;;;;;2044617;29;20151;-49
2024/03/07 05:47:24;;;;;;;21.45;10.02;;;;;;;;;;2045505;28;20028;-48
2024/03/07 05:48:25;;;;;;;16.40;9.55;;;;;;;;;;2047879;29;20024;-48
2024/03/07 05:49:27;;;;;;;13.48;7.05;;;;;;;;;;2044936;28;20012;-49
2024/03/07 05:50:28;;;;;;;9.73;5.65;;;;;;;;;;2048296;28;20023;-49
2024/03/07 05:51:30;;;;;;;10.77;5.50;;;;;;;;;;2045775;28;20418;-49
2024/03/07 05:52:31;;;;;;;11.35;4.82;;;;;;;;;;2048952;28;20023;-48
2024/03/07 05:53:32;;;;;;;11.25;4.75;;;;;;;;;;2049577;28;20023;-48
2024/03/07 05:54:34;;;;;;;8.80;4.82;;;;;;;;;;2049305;28;20043;-48
2024/03/07 05:55:35;;;;;;;6.22;3.92;;;;;;;;;;2048942;29;20035;-48
2024/03/07 05:56:38;;;;;;;9.25;5.03;;;;;;;;;;2055579;28;20105;-48
2024/03/07 05:57:39;;;;;;;9.27;4.10;;;;;;;;;;2053114;28;20058;-48
2024/03/07 05:58:40;;;;;;;10.13;3.90;;;;;;;;;;2049693;28;20027;-48
2024/03/07 05:59:42;;;;;;;7.80;3.65;;;;;;;;;;2049531;28;20102;-49
2024/03/07 06:00:49;;;;;;;7.47;3.33;;;;;;;;;;2049524;28;20019;-48
2024/03/07 06:01:51;;;;;;;7.35;3.20;;;;;;;;;;2049702;28;20019;-49
2024/03/07 06:02:53;;;;;;;9.18;3.80;;;;;;;;;;2049786;28;20034;-49
2024/03/07 06:03:54;;;;;;;8.07;3.20;;;;;;;;;;2048089;28;20027;-49
2024/03/07 06:04:56;;;;;;;7.45;3.10;;;;;;;;;;2039154;29;20477;-48
2024/03/07 06:05:57;;;;;;;7.38;3.20;;;;;;;;;;2048028;28;20019;-48
2024/03/07 06:06:59;;;;;;;5.93;3.35;;;;;;;;;;2049482;28;20028;-48
2024/03/07 06:08:01;;;;;;;8.10;3.33;;;;;;;;;;2049473;28;20019;-49
2024/03/07 06:09:07;;;;;;;7.53;3.50;;;;;;;;;;2049291;28;20138;-49
2024/03/07 06:10:11;;;;;;;6.28;3.83;;;;;;;;;;2048794;28;20055;-49